Time;durP1;ratioP1;P1;durP2;ratioP2;P2;SDS_P1;SDS_P2;PMS_P1;PMS_P2;Temp;Humidity;BMP_temperature;BMP_pressure;BME280_temperature;BME280_humidity;BME280_pressure;Samples;Min_cycle;Max_cycle;Signal;HPM_P1;HPM_P2
2021/06/17 00:02:07;;;;;;;4.17;3.77;;;;;;;24.09;45.24;101458.69;5072637;28;20212;-69
2021/06/17 00:04:33;;;;;;;4.37;3.90;;;;;;;24.08;45.30;101462.22;5072547;28;20184;-68
2021/06/17 00:06:59;;;;;;;6.17;4.30;;;;;;;24.06;45.35;101462.25;5072419;28;20665;-70
2021/06/17 00:09:24;;;;;;;4.87;4.47;;;;;;;24.05;45.32;101460.53;5071991;28;20181;-68
2021/06/17 00:11:50;;;;;;;7.97;3.97;;;;;;;24.03;45.34;101458.88;5071935;28;20192;-71
2021/06/17 00:14:15;;;;;;;5.50;4.27;;;;;;;24.03;45.25;101456.25;5072378;28;20177;-70
2021/06/17 00:16:41;;;;;;;5.93;3.90;;;;;;;24.01;45.28;101456.28;5072426;28;20177;-71
2021/06/17 00:19:06;;;;;;;6.20;4.20;;;;;;;24.00;45.14;101453.69;5070693;28;20181;-69
2021/06/17 00:21:31;;;;;;;6.40;4.37;;;;;;;24.00;45.17;101456.31;5087462;28;20216;-70
2021/06/17 00:23:56;;;;;;;4.60;3.93;;;;;;;23.98;45.14;101452.88;5071967;28;20199;-70
2021/06/17 00:26:22;;;;;;;4.87;4.00;;;;;;;23.97;45.10;101459.88;5071618;28;20183;-71
2021/06/17 00:28:47;;;;;;;6.43;4.20;;;;;;;23.96;45.04;101455.53;5071968;28;20187;-69
2021/06/17 00:31:12;;;;;;;4.30;3.90;;;;;;;23.96;45.10;101457.28;5071851;28;20566;-70
2021/06/17 00:33:38;;;;;;;6.03;4.10;;;;;;;23.95;45.12;101453.81;5071965;28;20184;-70
2021/06/17 00:36:03;;;;;;;6.03;4.03;;;;;;;23.95;45.06;101456.44;5071910;28;20661;-68
2021/06/17 00:38:29;;;;;;;4.90;4.00;;;;;;;23.93;45.02;101446.88;5070389;28;20231;-71
2021/06/17 00:40:55;;;;;;;4.20;3.77;;;;;;;23.93;45.05;101457.34;5069675;28;20215;-69
2021/06/17 00:43:21;;;;;;;4.17;3.80;;;;;;;23.91;44.95;101454.81;5071736;28;20209;-70
2021/06/17 00:45:47;;;;;;;4.80;3.70;;;;;;;23.91;44.81;101453.94;5071726;28;20185;-70
2021/06/17 00:48:14;;;;;;;5.23;3.70;;;;;;;23.88;45.06;101452.22;5071706;28;20238;-70
2021/06/17 00:50:43;;;;;;;4.20;3.70;;;;;;;23.85;44.95;101457.50;5071493;28;20208;-70
2021/06/17 00:53:10;;;;;;;4.37;3.60;;;;;;;23.84;44.98;101453.19;5071433;28;20773;-69
2021/06/17 00:55:37;;;;;;;4.07;3.70;;;;;;;23.84;44.87;101454.97;5070432;28;20566;-68
2021/06/17 00:58:03;;;;;;;4.03;3.63;;;;;;;23.82;45.01;101448.88;5071868;28;20181;-69
2021/06/17 01:00:28;;;;;;;3.87;3.43;;;;;;;23.81;44.91;101453.25;5071506;28;20288;-68
2021/06/17 01:02:53;;;;;;;4.57;4.17;;;;;;;23.79;45.36;101439.34;5071847;28;20184;-70
2021/06/17 01:05:20;;;;;;;4.33;3.57;;;;;;;23.78;45.01;101445.50;5072589;28;20655;-68
2021/06/17 01:08:06;;;;;;;4.60;3.70;;;;;;;23.78;44.86;101445.50;5079144;28;20676;-71
2021/06/17 01:10:48;;;;;;;5.33;3.83;;;;;;;23.77;44.83;101446.41;5071379;28;20553;-68
2021/06/17 01:13:31;;;;;;;5.40;4.00;;;;;;;23.76;44.71;101446.44;5070192;28;20173;-70
2021/06/17 01:16:21;;;;;;;8.20;3.60;;;;;;;23.74;44.88;101435.13;5071397;28;20191;-68
2021/06/17 01:18:51;;;;;;;4.57;3.83;;;;;;;23.73;44.70;101430.81;5071293;28;20183;-68
2021/06/17 01:21:54;;;;;;;7.30;3.90;;;;;;;23.72;44.76;101429.97;5069593;28;20946;-70
2021/06/17 01:24:44;;;;;;;5.27;3.57;;;;;;;23.70;44.84;101428.25;5086916;28;20302;-71
2021/06/17 01:27:39;;;;;;;5.17;3.50;;;;;;;23.70;44.56;101436.97;5071273;28;20173;-70
2021/06/17 01:30:13;;;;;;;6.33;3.43;;;;;;;23.69;45.03;101426.53;5086414;28;20188;-68
2021/06/17 01:32:50;;;;;;;4.10;3.23;;;;;;;23.67;44.76;101421.34;5069317;28;20222;-68
2021/06/17 01:35:19;;;;;;;3.67;3.37;;;;;;;23.67;44.53;101423.97;5069358;28;20179;-68
2021/06/17 01:37:45;;;;;;;5.00;3.30;;;;;;;23.65;44.66;101420.53;5069623;28;20327;-69
2021/06/17 01:40:13;;;;;;;5.73;3.30;;;;;;;23.66;44.64;101421.41;5070551;28;20205;-71
2021/06/17 01:42:42;;;;;;;5.17;3.70;;;;;;;23.63;44.50;101417.09;5070821;28;20259;-70
2021/06/17 01:45:08;;;;;;;4.33;3.30;;;;;;;23.61;44.77;101418.88;5070521;28;20188;-68
2021/06/17 01:47:35;;;;;;;4.57;3.30;;;;;;;23.59;44.63;101411.97;5070939;28;20204;-69
2021/06/17 01:50:01;;;;;;;7.03;3.40;;;;;;;23.59;44.71;101411.97;5070085;28;20223;-70
2021/06/17 01:52:30;;;;;;;5.33;3.57;;;;;;;23.57;44.67;101413.78;5070665;28;20865;-69
2021/06/17 01:54:57;;;;;;;5.13;3.10;;;;;;;23.55;44.59;101408.59;5070742;28;20173;-70
2021/06/17 01:57:23;;;;;;;3.57;3.27;;;;;;;23.56;44.62;101405.06;5070828;28;20645;-70
2021/06/17 01:59:51;;;;;;;3.30;3.00;;;;;;;23.55;44.65;101403.34;5085483;28;20209;-68
2021/06/17 02:02:17;;;;;;;5.10;3.10;;;;;;;23.53;44.61;101405.13;5070568;28;20280;-68
2021/06/17 02:04:51;;;;;;;4.13;3.37;;;;;;;23.51;44.32;101401.72;5069686;28;20181;-70
2021/06/17 02:07:19;;;;;;;5.77;3.10;;;;;;;23.50;44.40;101405.22;5070647;28;20226;-70
2021/06/17 02:09:49;;;;;;;5.60;3.27;;;;;;;23.49;44.45;101406.13;5070468;28;20197;-68
2021/06/17 02:12:14;;;;;;;4.40;3.00;;;;;;;23.48;44.41;101409.63;5086106;28;20233;-70
2021/06/17 02:14:40;;;;;;;4.53;3.20;;;;;;;23.49;44.52;101400.03;5070257;28;20189;-70
2021/06/17 02:17:07;;;;;;;6.33;3.60;;;;;;;23.47;44.32;101410.53;5068690;28;20872;-69
2021/06/17 02:19:33;;;;;;;5.77;3.43;;;;;;;23.46;44.28;101402.72;5069838;28;20200;-69
2021/06/17 02:22:01;;;;;;;4.23;3.13;;;;;;;23.45;44.54;101403.59;5069644;28;20173;-70
2021/06/17 02:24:27;;;;;;;3.33;2.93;;;;;;;23.45;44.47;101404.47;5085630;28;20659;-70
2021/06/17 02:26:57;;;;;;;3.43;2.80;;;;;;;23.43;44.36;101408.88;5069937;28;20205;-69
2021/06/17 02:29:23;;;;;;;4.07;2.80;;;;;;;23.40;44.33;101401.13;5068263;28;20317;-69
2021/06/17 02:31:50;;;;;;;6.67;3.07;;;;;;;23.38;44.23;101404.66;5069612;28;20257;-70
2021/06/17 02:34:17;;;;;;;3.93;2.83;;;;;;;23.36;44.46;101402.09;5069848;28;20172;-69
2021/06/17 02:36:45;;;;;;;3.83;2.80;;;;;;;23.36;44.30;101409.06;5069873;28;20241;-68
2021/06/17 02:39:13;;;;;;;3.30;3.00;;;;;;;23.35;44.56;101405.59;5069490;28;20193;-70
2021/06/17 02:41:44;;;;;;;6.27;3.40;;;;;;;23.34;44.28;101408.25;5069656;28;20201;-69
2021/06/17 02:44:11;;;;;;;3.17;2.80;;;;;;;23.33;44.12;101409.13;5069756;28;20173;-69
2021/06/17 02:46:36;;;;;;;4.57;3.10;;;;;;;23.32;44.28;101410.91;5084939;28;20185;-69
2021/06/17 02:49:06;;;;;;;5.83;2.80;;;;;;;23.31;44.21;101405.69;5069621;28;20196;-71
2021/06/17 02:51:31;;;;;;;4.10;3.00;;;;;;;23.29;44.56;101402.28;5069717;28;20835;-69
2021/06/17 02:53:56;;;;;;;4.17;3.03;;;;;;;23.29;44.40;101395.28;5069700;28;20189;-70
2021/06/17 02:56:30;;;;;;;3.47;3.17;;;;;;;23.27;44.27;101394.47;5069697;28;20254;-70
2021/06/17 02:59:20;;;;;;;3.83;3.10;;;;;;;23.27;44.24;101391.84;5084940;28;20230;-70
2021/06/17 03:01:54;;;;;;;4.50;2.70;;;;;;;23.27;44.62;101384.00;5069490;28;20181;-70
2021/06/17 03:04:24;;;;;;;3.47;2.93;;;;;;;23.26;44.27;101384.03;5069555;28;20176;-68
2021/06/17 03:06:51;;;;;;;4.13;2.67;;;;;;;23.24;44.27;101378.84;5070177;28;20222;-70
2021/06/17 03:09:28;;;;;;;3.43;3.13;;;;;;;23.23;44.58;101378.88;5082224;28;20173;-70
2021/06/17 03:11:56;;;;;;;7.27;2.93;;;;;;;23.22;44.37;101378.03;5077605;28;20288;-70
2021/06/17 03:14:26;;;;;;;3.80;2.97;;;;;;;23.22;44.40;101387.63;5084831;28;20263;-70
2021/06/17 03:16:55;;;;;;;4.37;3.00;;;;;;;23.20;44.22;101389.41;5071766;28;20692;-69
2021/06/17 03:19:21;;;;;;;4.10;2.70;;;;;;;23.18;44.31;101392.03;5073483;28;20173;-71
2021/06/17 03:21:52;;;;;;;3.20;2.67;;;;;;;23.17;44.30;101392.94;5073862;28;20181;-70
2021/06/17 03:24:23;;;;;;;5.10;2.67;;;;;;;23.16;44.11;101393.78;5073669;28;20552;-69
2021/06/17 03:26:51;;;;;;;6.77;2.83;;;;;;;23.16;44.14;101399.03;5073217;28;20235;-68
2021/06/17 03:29:18;;;;;;;4.30;3.10;;;;;;;23.16;44.10;101390.34;5088115;28;20919;-70
2021/06/17 03:31:43;;;;;;;6.57;2.90;;;;;;;23.15;44.13;101393.84;5073201;28;20545;-70
2021/06/17 03:34:10;;;;;;;4.10;3.07;;;;;;;23.14;44.46;101390.38;5073436;28;20177;-69
2021/06/17 03:36:37;;;;;;;3.80;2.93;;;;;;;23.13;44.20;101388.66;5088868;28;20177;-69
2021/06/17 03:39:04;;;;;;;4.97;3.10;;;;;;;23.13;44.37;101393.03;5072677;28;20564;-70
2021/06/17 03:41:30;;;;;;;3.23;2.90;;;;;;;23.12;44.13;101393.91;5072983;28;20204;-69
2021/06/17 03:43:56;;;;;;;3.97;2.77;;;;;;;23.13;44.09;101400.84;5088601;28;20177;-70
2021/06/17 03:46:22;;;;;;;2.83;2.57;;;;;;;23.10;44.11;101396.56;5072863;28;20181;-70
2021/06/17 03:48:48;;;;;;;8.23;3.07;;;;;;;23.10;44.01;101395.69;5072199;28;20217;-69
2021/06/17 03:51:14;;;;;;;3.77;2.60;;;;;;;23.10;44.33;101400.91;5072796;28;20193;-70
2021/06/17 03:53:41;;;;;;;3.30;2.80;;;;;;;23.09;44.40;101401.81;5071110;28;20607;-69
2021/06/17 03:56:07;;;;;;;6.17;2.80;;;;;;;23.08;44.39;101400.97;5088407;28;20238;-70
2021/06/17 03:58:33;;;;;;;4.40;2.83;;;;;;;23.09;44.39;101400.06;5072734;28;20176;-68
2021/06/17 04:00:59;;;;;;;4.30;2.80;;;;;;;23.09;44.57;101394.84;5072285;28;20692;-69
2021/06/17 04:03:28;;;;;;;4.13;2.90;;;;;;;23.09;44.59;101393.97;5072735;28;20177;-68
2021/06/17 04:05:58;;;;;;;5.43;2.70;;;;;;;23.08;44.29;101395.75;5072637;28;20185;-70
2021/06/17 04:08:30;;;;;;;5.23;3.10;;;;;;;23.08;44.61;101395.75;5072543;28;20169;-69
2021/06/17 04:10:59;;;;;;;3.87;2.80;;;;;;;23.09;44.25;101394.84;5072282;28;20615;-70
2021/06/17 04:13:28;;;;;;;3.43;2.90;;;;;;;23.09;44.56;101397.47;5072583;28;20582;-69
2021/06/17 04:15:55;;;;;;;3.97;2.70;;;;;;;23.10;44.39;101393.06;5072440;28;20217;-69
2021/06/17 04:18:24;;;;;;;5.23;2.67;;;;;;;23.10;44.52;101386.09;5072403;28;20177;-69
2021/06/17 04:20:52;;;;;;;5.60;2.70;;;;;;;23.10;44.36;101388.72;5072090;28;20211;-67
2021/06/17 04:23:19;;;;;;;3.37;2.60;;;;;;;23.10;44.56;101386.09;5071802;28;20181;-68
2021/06/17 04:25:45;;;;;;;3.07;2.77;;;;;;;23.10;44.63;101396.56;5072345;28;20180;-69
2021/06/17 04:28:11;;;;;;;5.33;2.80;;;;;;;23.12;44.24;101391.31;5087210;28;20185;-69
2021/06/17 04:30:37;;;;;;;5.20;2.90;;;;;;;23.14;44.40;101392.97;5071805;28;20200;-67
2021/06/17 04:33:06;;;;;;;4.87;2.73;;;;;;;23.13;44.12;101388.66;5072295;28;20176;-68
2021/06/17 04:35:33;;;;;;;4.33;2.90;;;;;;;23.14;44.23;101389.50;5072356;28;20169;-69
2021/06/17 04:37:59;;;;;;;5.77;2.80;;;;;;;23.13;44.34;101391.28;5072150;28;20173;-69
2021/06/17 04:40:25;;;;;;;4.47;2.60;;;;;;;23.13;44.63;101387.78;5071832;28;20201;-68
2021/06/17 04:42:56;;;;;;;4.60;3.13;;;;;;;23.13;44.47;101391.28;5070875;28;20254;-69
2021/06/17 04:45:23;;;;;;;3.83;2.60;;;;;;;23.13;44.74;101380.81;5071959;28;20169;-69
2021/06/17 04:47:50;;;;;;;3.70;2.90;;;;;;;23.13;44.39;101380.81;5071877;28;20819;-68
2021/06/17 04:50:17;;;;;;;5.00;3.00;;;;;;;23.13;44.45;101380.81;5071734;28;20193;-70
2021/06/17 04:53:05;;;;;;;3.53;3.20;;;;;;;23.15;44.82;101379.00;5071831;28;20213;-69
2021/06/17 04:55:30;;;;;;;8.03;3.10;;;;;;;23.17;44.82;101384.22;5071446;28;20177;-67
2021/06/17 04:57:56;;;;;;;7.20;3.30;;;;;;;23.17;44.92;101368.53;5072093;28;20660;-68
2021/06/17 05:00:21;;;;;;;8.60;3.63;;;;;;;23.22;45.14;101369.31;5053249;28;20220;-70
2021/06/17 05:02:46;;;;;;;5.27;2.90;;;;;;;23.30;45.08;101372.59;5065222;28;20205;-72
2021/06/17 05:05:12;;;;;;;5.03;3.20;;;;;;;23.35;45.19;101370.75;5071427;28;20208;-71
2021/06/17 05:12:49;;;;;;;6.30;3.20;;;;;;;23.38;45.26;101371.53;5072965;28;20219;-73
2021/06/17 05:15:15;;;;;;;6.80;3.20;;;;;;;23.40;44.94;101367.13;5071311;28;20646;-71
2021/06/17 05:17:40;;;;;;;5.93;3.57;;;;;;;23.45;45.43;101374.84;5070273;28;20272;-74
2021/06/17 05:20:07;;;;;;;5.13;3.37;;;;;;;23.45;45.03;101370.47;5086449;28;20295;-69
2021/06/17 05:22:34;;;;;;;6.93;3.20;;;;;;;23.48;45.23;101375.63;5068971;28;20181;-75
2021/06/17 05:24:59;;;;;;;7.27;3.40;;;;;;;23.48;45.01;101380.84;5087324;28;20271;-70
2021/06/17 05:27:24;;;;;;;5.30;3.10;;;;;;;23.48;44.83;101375.63;5061416;28;20248;-72
2021/06/17 05:29:49;;;;;;;3.70;3.10;;;;;;;23.50;44.86;101375.59;5071280;28;20217;-73
2021/06/17 05:32:15;;;;;;;6.77;3.53;;;;;;;23.52;44.80;101379.88;5070435;28;20178;-73
2021/06/17 05:34:41;;;;;;;4.23;3.37;;;;;;;23.54;44.81;101377.22;5055848;28;20190;-73
2021/06/17 05:37:07;;;;;;;4.37;3.53;;;;;;;23.52;44.82;101382.50;5058086;28;20173;-74
2021/06/17 05:39:32;;;;;;;5.03;3.20;;;;;;;23.53;44.74;101386.81;5069528;28;20203;-69
2021/06/17 05:41:57;;;;;;;4.57;3.80;;;;;;;23.55;44.83;101384.16;5071151;28;20790;-69
2021/06/17 05:44:23;;;;;;;4.40;3.47;;;;;;;23.58;45.02;101386.72;5070759;28;20231;-72
2021/06/17 05:46:48;;;;;;;6.43;4.03;;;;;;;23.63;45.04;101383.09;5076022;28;20188;-72
2021/06/17 05:49:14;;;;;;;5.13;3.93;;;;;;;23.62;45.22;101389.22;5070715;28;20185;-70
2021/06/17 05:51:39;;;;;;;6.97;4.27;;;;;;;23.60;45.44;101385.78;5071991;28;20175;-70
2021/06/17 05:54:04;;;;;;;4.80;3.70;;;;;;;23.56;44.99;101392.00;5071545;28;20502;-73
2021/06/17 05:56:30;;;;;;;4.10;3.70;;;;;;;23.56;45.35;101394.59;5086830;28;20652;-71
2021/06/17 05:58:56;;;;;;;4.37;3.87;;;;;;;23.57;44.99;101398.09;5070746;28;20205;-72
2021/06/17 06:01:21;;;;;;;5.07;3.60;;;;;;;23.59;45.24;101401.50;5070839;28;20693;-72
2021/06/17 06:03:48;;;;;;;4.37;3.73;;;;;;;23.62;45.24;101402.28;5070775;28;20242;-70
2021/06/17 06:06:13;;;;;;;4.50;3.83;;;;;;;23.65;45.20;101410.06;5070954;28;20223;-69
2021/06/17 06:08:38;;;;;;;5.03;3.90;;;;;;;23.67;45.58;101407.41;5070073;28;20177;-71
2021/06/17 06:11:03;;;;;;;5.27;3.93;;;;;;;23.69;45.20;101403.00;5069292;28;20205;-69
2021/06/17 06:13:30;;;;;;;5.73;4.03;;;;;;;23.70;45.28;101395.13;5070574;28;20177;-68
2021/06/17 06:15:56;;;;;;;5.70;3.90;;;;;;;23.72;45.40;101401.19;5070241;28;20177;-68
2021/06/17 06:18:25;;;;;;;6.40;4.10;;;;;;;23.73;45.55;101410.75;5070369;28;20703;-70
2021/06/17 06:20:51;;;;;;;5.33;4.13;;;;;;;23.75;45.50;101402.88;5070392;28;20206;-70
2021/06/17 06:23:18;;;;;;;6.90;3.60;;;;;;;23.75;45.57;101395.84;5070548;28;20241;-68
2021/06/17 06:25:47;;;;;;;4.30;3.90;;;;;;;23.75;45.59;101406.31;5070283;28;20221;-71
2021/06/17 06:28:13;;;;;;;5.67;4.63;;;;;;;23.76;45.60;101410.66;5057499;28;20732;-70
2021/06/17 06:30:38;;;;;;;8.00;3.83;;;;;;;23.78;45.99;101414.09;5066442;28;20193;-67
2021/06/17 06:33:03;;;;;;;4.60;3.83;;;;;;;23.80;46.00;101407.06;5070155;28;20177;-68
2021/06/17 06:35:29;;;;;;;5.70;4.13;;;;;;;23.83;46.17;101408.75;5069833;28;20184;-67
2021/06/17 06:37:54;;;;;;;5.23;3.90;;;;;;;23.84;46.09;101405.25;5069952;28;20184;-69
2021/06/17 06:40:23;;;;;;;4.60;3.57;;;;;;;23.86;46.16;101406.06;5063695;28;20411;-71
2021/06/17 06:42:49;;;;;;;4.40;4.00;;;;;;;23.89;46.37;101405.97;5059757;28;20377;-69
2021/06/17 06:45:15;;;;;;;4.37;3.83;;;;;;;23.91;46.42;101407.69;5070541;28;20268;-70
2021/06/17 06:47:40;;;;;;;4.57;4.13;;;;;;;23.93;46.06;101403.25;5050497;28;20284;-69
2021/06/17 06:50:06;;;;;;;5.87;4.10;;;;;;;24.00;45.60;101404.84;5077792;28;20219;-70
2021/06/17 06:52:32;;;;;;;4.87;4.33;;;;;;;24.00;45.94;101403.97;5069512;28;20177;-71
2021/06/17 06:54:59;;;;;;;4.47;4.10;;;;;;;23.99;46.01;101405.72;5069772;28;20187;-71
2021/06/17 06:57:28;;;;;;;4.67;4.13;;;;;;;24.01;46.10;101416.16;5069622;28;20173;-71
2021/06/17 06:59:54;;;;;;;5.30;4.30;;;;;;;24.03;46.08;101409.13;5067980;28;20286;-71
2021/06/17 07:02:19;;;;;;;4.10;3.70;;;;;;;24.04;46.14;101411.69;5055441;28;20237;-72
2021/06/17 07:04:45;;;;;;;4.10;3.30;;;;;;;24.05;45.74;101421.28;5061855;28;20181;-69
2021/06/17 07:07:10;;;;;;;4.50;4.10;;;;;;;24.08;46.16;101422.94;5078373;28;20271;-71
2021/06/17 07:09:36;;;;;;;6.87;4.33;;;;;;;24.12;46.32;101412.34;5070600;28;20295;-70
2021/06/17 07:12:02;;;;;;;8.10;4.57;;;;;;;24.16;46.05;101420.97;5067683;28;20697;-71
2021/06/17 07:14:28;;;;;;;4.60;4.13;;;;;;;24.28;45.96;101428.50;5056542;28;20242;-69
2021/06/17 07:16:54;;;;;;;6.87;4.47;;;;;;;24.43;45.66;101422.84;5049957;28;20429;-72
2021/06/17 07:19:20;;;;;;;6.60;4.37;;;;;;;24.50;45.42;101416.53;5069631;28;20177;-70
2021/06/17 07:21:45;;;;;;;5.93;3.97;;;;;;;24.46;45.57;101420.13;5069747;28;20205;-71
2021/06/17 07:24:10;;;;;;;5.13;4.27;;;;;;;24.49;45.84;101420.06;5004130;28;20302;-69
2021/06/17 07:26:36;;;;;;;7.47;4.17;;;;;;;24.59;45.59;101426.75;5063998;28;20266;-71
2021/06/17 07:29:01;;;;;;;6.97;4.07;;;;;;;24.61;45.42;101419.72;5085557;28;20192;-71
2021/06/17 07:31:27;;;;;;;4.43;4.03;;;;;;;24.58;45.52;101425.03;5085606;28;20689;-71
2021/06/17 07:33:52;;;;;;;6.23;4.40;;;;;;;24.55;45.74;101422.50;5069923;28;20177;-70
2021/06/17 07:36:18;;;;;;;4.30;3.90;;;;;;;24.53;45.87;101426.91;5069917;28;20177;-70
2021/06/17 07:38:43;;;;;;;4.87;4.07;;;;;;;24.58;45.53;101419.81;5070476;28;20208;-71
2021/06/17 07:41:08;;;;;;;4.80;4.40;;;;;;;24.62;45.69;101421.44;5069699;28;20734;-69
2021/06/17 07:43:34;;;;;;;5.33;4.30;;;;;;;24.59;45.71;101422.38;5069750;28;20231;-71
2021/06/17 07:46:00;;;;;;;6.00;4.70;;;;;;;24.56;45.74;101424.22;5070664;28;20196;-69
2021/06/17 07:48:26;;;;;;;5.37;3.80;;;;;;;24.55;45.95;101417.25;5070724;28;20553;-72
2021/06/17 07:50:52;;;;;;;4.90;4.47;;;;;;;24.54;45.74;101421.63;5069731;28;20681;-72
2021/06/17 07:53:18;;;;;;;4.80;4.40;;;;;;;24.54;45.98;101420.78;5085005;28;20185;-72
2021/06/17 07:55:44;;;;;;;5.83;4.60;;;;;;;24.54;45.97;101426.88;5069531;28;20292;-71
2021/06/17 07:58:10;;;;;;;5.30;4.33;;;;;;;24.54;45.86;101420.78;5069989;28;20549;-72
2021/06/17 08:00:35;;;;;;;4.43;4.00;;;;;;;24.56;45.76;101421.59;5069228;28;20208;-70
2021/06/17 08:03:01;;;;;;;5.03;4.53;;;;;;;24.57;45.97;101425.91;5070894;28;20173;-72
2021/06/17 08:05:26;;;;;;;4.93;4.50;;;;;;;24.56;45.96;101427.69;5073362;28;20268;-71
2021/06/17 08:07:52;;;;;;;5.27;4.40;;;;;;;24.57;45.82;101426.78;5089106;28;20196;-71
2021/06/17 08:10:18;;;;;;;4.47;4.07;;;;;;;24.59;45.75;101425.00;5073037;28;20204;-69
2021/06/17 08:12:43;;;;;;;4.60;4.20;;;;;;;24.57;45.94;101423.31;5073458;28;20203;-71
2021/06/17 08:15:09;;;;;;;5.07;4.40;;;;;;;24.55;45.95;101422.50;5088942;28;20188;-69
2021/06/17 08:17:34;;;;;;;5.20;4.70;;;;;;;24.55;46.23;101425.13;5073062;28;20179;-71
2021/06/17 08:20:00;;;;;;;5.43;4.83;;;;;;;24.55;46.22;101418.13;5073320;28;20209;-69
2021/06/17 08:22:27;;;;;;;4.47;4.17;;;;;;;24.55;45.78;101418.13;5088823;28;20242;-71
2021/06/17 08:24:53;;;;;;;4.70;4.30;;;;;;;24.57;46.14;101423.31;5066985;28;20235;-71
2021/06/17 08:27:18;;;;;;;5.67;5.07;;;;;;;24.57;46.21;101423.31;5072935;28;20522;-72
2021/06/17 08:29:44;;;;;;;5.60;4.83;;;;;;;24.58;46.30;101415.41;5072530;28;20196;-69
2021/06/17 08:32:09;;;;;;;5.30;4.33;;;;;;;24.59;46.62;101414.53;5072848;28;20219;-71
2021/06/17 08:34:34;;;;;;;4.73;4.33;;;;;;;24.59;46.84;101414.53;5073038;28;20185;-71
2021/06/17 08:37:00;;;;;;;5.07;4.63;;;;;;;24.60;46.41;101418.03;5072995;28;20181;-70
2021/06/17 08:39:28;;;;;;;5.10;4.60;;;;;;;24.61;46.55;101409.25;5072363;28;20181;-69
2021/06/17 08:41:54;;;;;;;5.07;4.60;;;;;;;24.61;46.31;101401.38;5073046;28;20169;-71
2021/06/17 08:44:19;;;;;;;5.57;4.87;;;;;;;24.62;46.49;101395.22;5073222;28;20181;-68
2021/06/17 08:46:44;;;;;;;5.87;5.37;;;;;;;24.61;46.58;101393.53;5072362;28;20179;-71
2021/06/17 08:49:11;;;;;;;5.37;4.83;;;;;;;24.63;46.63;101389.13;5071252;28;20277;-70
2021/06/17 08:51:40;;;;;;;5.87;4.90;;;;;;;24.63;46.72;101395.19;5072546;28;20181;-72
2021/06/17 08:54:05;;;;;;;5.77;5.27;;;;;;;24.66;46.46;101392.50;5072052;28;20165;-68
2021/06/17 08:56:30;;;;;;;6.13;5.53;;;;;;;24.74;46.70;101395.75;5087258;28;20188;-71
2021/06/17 08:58:57;;;;;;;6.77;6.03;;;;;;;24.81;46.69;101389.41;5071785;28;20177;-73
2021/06/17 09:01:23;;;;;;;5.60;5.10;;;;;;;24.94;47.59;101379.41;5071664;28;20672;-71
2021/06/17 09:03:49;;;;;;;7.40;5.43;;;;;;;25.01;47.43;101381.78;5086903;28;20185;-71
2021/06/17 09:06:18;;;;;;;7.30;5.97;;;;;;;25.05;47.45;101390.44;5071957;28;20227;-74
2021/06/17 09:09:00;;;;;;;7.07;5.47;;;;;;;25.05;47.72;101375.56;5070868;28;20678;-69
2021/06/17 09:11:26;;;;;;;6.27;5.67;;;;;;;25.04;47.94;101379.09;5069728;28;20193;-68
2021/06/17 09:13:51;;;;;;;8.20;5.93;;;;;;;25.05;48.13;101377.34;5070054;28;20264;-68
2021/06/17 09:16:27;;;;;;;7.13;6.13;;;;;;;25.07;48.12;101380.75;5076329;28;20209;-67
2021/06/17 09:18:52;;;;;;;7.33;5.93;;;;;;;25.10;48.73;101381.50;5085276;28;20195;-68
2021/06/17 09:21:18;;;;;;;8.80;5.87;;;;;;;25.12;48.35;101376.22;5071961;28;20208;-69
2021/06/17 09:23:45;;;;;;;6.90;6.20;;;;;;;25.13;48.26;101377.94;5071122;28;20220;-70
2021/06/17 09:26:18;;;;;;;7.07;6.37;;;;;;;25.13;48.00;101370.06;5070903;28;20177;-69
2021/06/17 09:28:47;;;;;;;7.40;6.70;;;;;;;25.13;48.33;101377.94;5070503;28;20177;-66
2021/06/17 09:31:33;;;;;;;8.77;6.53;;;;;;;25.13;48.24;101364.81;5071049;28;20204;-66
2021/06/17 09:34:00;;;;;;;6.80;6.10;;;;;;;25.13;48.08;101356.94;5071479;28;20168;-67
2021/06/17 09:36:29;;;;;;;6.77;6.17;;;;;;;25.11;48.09;101351.78;5071118;28;20268;-68
2021/06/17 09:38:57;;;;;;;6.87;6.17;;;;;;;25.11;48.19;101356.16;5086409;28;20613;-65
2021/06/17 09:41:29;;;;;;;6.80;5.80;;;;;;;25.10;48.22;101349.19;5070898;28;20707;-65
2021/06/17 09:43:55;;;;;;;6.80;6.20;;;;;;;25.09;47.86;101344.88;5070297;28;20181;-68
2021/06/17 09:46:20;;;;;;;7.57;6.70;;;;;;;25.08;47.94;101341.38;5070630;28;20571;-65
2021/06/17 09:48:49;;;;;;;7.10;6.17;;;;;;;25.08;47.71;101336.13;5069740;28;20185;-65
2021/06/17 09:51:24;;;;;;;9.80;6.57;;;;;;;25.07;47.83;101339.66;5070279;28;20263;-67
2021/06/17 09:53:50;;;;;;;7.53;6.73;;;;;;;25.07;47.93;101344.91;5070169;28;20188;-64
2021/06/17 09:56:17;;;;;;;7.87;7.17;;;;;;;25.07;47.93;101339.66;5070072;28;20263;-68
2021/06/17 09:58:44;;;;;;;7.30;6.63;;;;;;;25.07;47.85;101344.91;5070773;28;20181;-68
2021/06/17 10:01:17;;;;;;;7.37;6.67;;;;;;;25.07;47.71;101339.66;5069868;28;20263;-66
2021/06/17 10:04:06;;;;;;;7.13;6.43;;;;;;;25.08;47.78;101337.88;5086626;28;20237;-67
2021/06/17 10:06:34;;;;;;;7.23;6.53;;;;;;;25.09;47.91;101343.09;5070040;28;20234;-67
2021/06/17 10:08:59;;;;;;;7.90;6.57;;;;;;;25.09;47.60;101340.47;5085146;28;20266;-68
2021/06/17 10:11:25;;;;;;;8.17;6.90;;;;;;;25.10;48.32;101339.56;5069923;28;20601;-66
2021/06/17 10:13:51;;;;;;;7.17;6.47;;;;;;;25.11;47.86;101343.03;5069775;28;20184;-66
2021/06/17 10:16:18;;;;;;;7.90;6.90;;;;;;;25.11;47.73;101346.53;5086105;28;20627;-67
2021/06/17 10:18:46;;;;;;;8.23;7.13;;;;;;;25.12;47.82;101343.00;5069880;28;20789;-68
2021/06/17 10:21:17;;;;;;;8.60;7.50;;;;;;;25.13;47.75;101341.22;5070007;28;20267;-66
2021/06/17 10:23:45;;;;;;;7.90;7.20;;;;;;;25.14;47.79;101335.94;5070446;28;20177;-68
2021/06/17 10:26:11;;;;;;;8.07;7.27;;;;;;;25.14;47.69;101332.47;5069558;28;20177;-68
2021/06/17 10:28:41;;;;;;;8.63;7.73;;;;;;;25.17;47.71;101329.72;5069639;28;20287;-65
2021/06/17 10:31:08;;;;;;;8.90;8.13;;;;;;;25.19;47.92;101323.53;5068556;28;20268;-66
2021/06/17 10:33:36;;;;;;;8.70;6.77;;;;;;;25.21;48.02;101324.34;5086431;28;20554;-65
2021/06/17 10:36:21;;;;;;;8.57;7.10;;;;;;;25.23;47.60;101313.81;5068687;28;20206;-67
2021/06/17 10:39:05;;;;;;;7.73;7.03;;;;;;;25.24;47.98;101321.59;5069755;28;20792;-65
2021/06/17 10:41:52;;;;;;;11.07;7.53;;;;;;;25.27;47.70;101318.09;5069980;28;20572;-68
2021/06/17 10:44:36;;;;;;;10.87;7.30;;;;;;;25.28;48.28;101320.63;5085599;28;20177;-66
2021/06/17 10:47:06;;;;;;;8.57;7.67;;;;;;;25.30;48.25;101320.59;5070446;28;20173;-65
2021/06/17 10:49:49;;;;;;;10.30;7.43;;;;;;;25.33;48.13;101326.56;5069902;28;20272;-66
2021/06/17 10:52:42;;;;;;;10.17;7.07;;;;;;;25.38;47.90;101318.56;5070007;28;20169;-66
2021/06/17 10:55:08;;;;;;;9.97;7.70;;;;;;;25.51;48.25;101309.38;5044000;28;20839;-71
2021/06/17 10:57:43;;;;;;;9.83;7.77;;;;;;;25.72;47.57;101306.88;5064178;28;20273;-72
2021/06/17 11:00:28;;;;;;;8.90;8.00;;;;;;;25.77;47.64;101306.69;5075300;28;20426;-70
2021/06/17 11:03:06;;;;;;;8.03;7.20;;;;;;;25.74;47.36;101305.03;5069453;28;20177;-69
2021/06/17 11:05:51;;;;;;;8.00;7.10;;;;;;;25.71;47.30;101301.66;5051688;28;20272;-70
2021/06/17 11:08:21;;;;;;;8.70;7.73;;;;;;;25.67;47.78;101300.91;5085445;28;20188;-71
2021/06/17 11:10:49;;;;;;;8.37;7.57;;;;;;;25.66;47.95;101301.84;5069768;28;20267;-69
2021/06/17 11:13:32;;;;;;;7.83;6.90;;;;;;;25.66;47.69;101304.47;5069744;28;20173;-71
2021/06/17 11:16:02;;;;;;;7.37;6.57;;;;;;;25.67;47.64;101300.06;5066881;28;20234;-71
2021/06/17 11:23:51;;;;;;;7.50;6.80;;;;;;;25.70;47.40;101306.03;5070068;28;20576;-70
2021/06/17 11:26:37;;;;;;;7.60;6.97;;;;;;;25.72;47.46;101298.13;5085088;28;20865;-69
2021/06/17 11:29:06;;;;;;;8.00;7.27;;;;;;;25.72;47.51;101285.88;5068744;28;20594;-71
2021/06/17 11:31:42;;;;;;;8.07;7.30;;;;;;;25.75;47.26;101293.66;5069839;28;20614;-68
2021/06/17 11:34:12;;;;;;;7.10;6.50;;;;;;;25.77;47.53;101283.94;5070317;28;20200;-69
2021/06/17 11:36:48;;;;;;;7.53;6.80;;;;;;;25.81;47.34;101297.78;5066955;28;20740;-69
2021/06/17 11:39:20;;;;;;;7.50;6.67;;;;;;;25.81;47.45;101282.91;5062183;28;20546;-68
2021/06/17 11:41:45;;;;;;;7.40;6.80;;;;;;;25.82;47.28;101282.00;5073251;28;20280;-68